sensor_id;sensor_type;location;lat;lon;timestamp;P1;durP1;ratioP1;P2;durP2;ratioP2
1370;SDS011;14306;49.942;11.570;2023-06-22T00:00:39;22.23;;;16.10;;
1370;SDS011;14306;49.942;11.570;2023-06-22T00:03:09;20.83;;;17.20;;
1370;SDS011;14306;49.942;11.570;2023-06-22T00:05:37;21.17;;;17.10;;
1370;SDS011;14306;49.942;11.570;2023-06-22T00:08:05;20.97;;;17.43;;
1370;SDS011;14306;49.942;11.570;2023-06-22T00:10:35;22.67;;;18.17;;
1370;SDS011;14306;49.942;11.570;2023-06-22T00:13:03;20.20;;;17.77;;
1370;SDS011;14306;49.942;11.570;2023-06-22T00:15:32;19.90;;;15.73;;
1370;SDS011;14306;49.942;11.570;2023-06-22T00:18:01;21.40;;;17.73;;
1370;SDS011;14306;49.942;11.570;2023-06-22T00:20:29;19.63;;;15.43;;
1370;SDS011;14306;49.942;11.570;2023-06-22T00:22:59;18.93;;;15.00;;
1370;SDS011;14306;49.942;11.570;2023-06-22T00:25:28;20.30;;;15.60;;
1370;SDS011;14306;49.942;11.570;2023-06-22T00:27:57;18.97;;;15.10;;
1370;SDS011;14306;49.942;11.570;2023-06-22T00:30:26;20.10;;;16.67;;
1370;SDS011;14306;49.942;11.570;2023-06-22T00:32:54;24.27;;;15.40;;
1370;SDS011;14306;49.942;11.570;2023-06-22T00:35:22;19.40;;;15.53;;
1370;SDS011;14306;49.942;11.570;2023-06-22T00:37:55;18.70;;;14.53;;
1370;SDS011;14306;49.942;11.570;2023-06-22T00:40:28;18.50;;;14.80;;
1370;SDS011;14306;49.942;11.570;2023-06-22T00:42:59;22.40;;;15.27;;
1370;SDS011;14306;49.942;11.570;2023-06-22T00:45:27;19.00;;;14.67;;
1370;SDS011;14306;49.942;11.570;2023-06-22T00:47:56;21.50;;;16.67;;
1370;SDS011;14306;49.942;11.570;2023-06-22T00:50:26;18.50;;;14.97;;
1370;SDS011;14306;49.942;11.570;2023-06-22T00:53:00;18.83;;;15.17;;
1370;SDS011;14306;49.942;11.570;2023-06-22T00:55:36;19.40;;;15.03;;
1370;SDS011;14306;49.942;11.570;2023-06-22T00:58:07;16.67;;;14.17;;
1370;SDS011;14306;49.942;11.570;2023-06-22T01:00:37;16.73;;;14.20;;
1370;SDS011;14306;49.942;11.570;2023-06-22T01:03:06;22.10;;;16.10;;
1370;SDS011;14306;49.942;11.570;2023-06-22T01:05:36;17.93;;;14.57;;
1370;SDS011;14306;49.942;11.570;2023-06-22T01:08:08;18.80;;;15.50;;
1370;SDS011;14306;49.942;11.570;2023-06-22T01:10:44;20.90;;;16.17;;
1370;SDS011;14306;49.942;11.570;2023-06-22T01:13:21;20.87;;;17.20;;
1370;SDS011;14306;49.942;11.570;2023-06-22T01:15:58;20.20;;;15.70;;
1370;SDS011;14306;49.942;11.570;2023-06-22T01:18:30;25.30;;;18.13;;
1370;SDS011;14306;49.942;11.570;2023-06-22T01:21:03;30.80;;;19.90;;
1370;SDS011;14306;49.942;11.570;2023-06-22T01:23:39;21.40;;;17.90;;
1370;SDS011;14306;49.942;11.570;2023-06-22T01:26:18;25.50;;;18.40;;
1370;SDS011;14306;49.942;11.570;2023-06-22T01:28:52;21.53;;;16.90;;
1370;SDS011;14306;49.942;11.570;2023-06-22T01:31:22;24.47;;;19.10;;
1370;SDS011;14306;49.942;11.570;2023-06-22T01:33:53;25.73;;;18.20;;
1370;SDS011;14306;49.942;11.570;2023-06-22T01:36:24;24.20;;;19.23;;
1370;SDS011;14306;49.942;11.570;2023-06-22T01:38:54;25.40;;;18.10;;
1370;SDS011;14306;49.942;11.570;2023-06-22T01:41:24;21.47;;;17.20;;
1370;SDS011;14306;49.942;11.570;2023-06-22T01:43:56;23.90;;;18.17;;
1370;SDS011;14306;49.942;11.570;2023-06-22T01:46:24;25.87;;;20.10;;
1370;SDS011;14306;49.942;11.570;2023-06-22T01:48:53;29.57;;;18.90;;
1370;SDS011;14306;49.942;11.570;2023-06-22T01:51:21;25.23;;;18.17;;
1370;SDS011;14306;49.942;11.570;2023-06-22T01:53:49;22.33;;;18.40;;
1370;SDS011;14306;49.942;11.570;2023-06-22T01:56:18;22.23;;;18.73;;
1370;SDS011;14306;49.942;11.570;2023-06-22T01:58:50;20.37;;;17.77;;
1370;SDS011;14306;49.942;11.570;2023-06-22T02:01:28;26.33;;;17.70;;
1370;SDS011;14306;49.942;11.570;2023-06-22T02:04:03;24.50;;;16.20;;
1370;SDS011;14306;49.942;11.570;2023-06-22T02:06:37;23.97;;;17.20;;
1370;SDS011;14306;49.942;11.570;2023-06-22T02:09:09;18.97;;;16.70;;
1370;SDS011;14306;49.942;11.570;2023-06-22T02:11:42;24.07;;;18.10;;
1370;SDS011;14306;49.942;11.570;2023-06-22T02:14:13;23.50;;;18.03;;
1370;SDS011;14306;49.942;11.570;2023-06-22T02:16:46;20.10;;;15.67;;
1370;SDS011;14306;49.942;11.570;2023-06-22T02:19:14;19.27;;;15.70;;
1370;SDS011;14306;49.942;11.570;2023-06-22T02:21:45;20.47;;;14.73;;
1370;SDS011;14306;49.942;11.570;2023-06-22T02:24:13;17.80;;;14.70;;
1370;SDS011;14306;49.942;11.570;2023-06-22T02:26:41;22.13;;;17.73;;
1370;SDS011;14306;49.942;11.570;2023-06-22T02:29:12;21.03;;;17.10;;
1370;SDS011;14306;49.942;11.570;2023-06-22T02:31:40;20.63;;;17.37;;
1370;SDS011;14306;49.942;11.570;2023-06-22T02:34:10;22.37;;;17.90;;
1370;SDS011;14306;49.942;11.570;2023-06-22T02:36:44;23.37;;;17.07;;
1370;SDS011;14306;49.942;11.570;2023-06-22T02:39:22;21.90;;;14.93;;
1370;SDS011;14306;49.942;11.570;2023-06-22T02:41:51;19.20;;;16.23;;
1370;SDS011;14306;49.942;11.570;2023-06-22T02:44:20;21.10;;;15.67;;
1370;SDS011;14306;49.942;11.570;2023-06-22T02:46:48;20.57;;;17.20;;
1370;SDS011;14306;49.942;11.570;2023-06-22T02:49:18;23.33;;;17.50;;
1370;SDS011;14306;49.942;11.570;2023-06-22T02:51:47;22.00;;;17.00;;
1370;SDS011;14306;49.942;11.570;2023-06-22T02:54:16;27.57;;;16.47;;
1370;SDS011;14306;49.942;11.570;2023-06-22T02:56:44;21.20;;;16.70;;
1370;SDS011;14306;49.942;11.570;2023-06-22T02:59:12;20.37;;;18.20;;
1370;SDS011;14306;49.942;11.570;2023-06-22T03:01:41;22.57;;;17.17;;
1370;SDS011;14306;49.942;11.570;2023-06-22T03:04:09;23.80;;;17.30;;
1370;SDS011;14306;49.942;11.570;2023-06-22T03:06:39;18.90;;;16.13;;
1370;SDS011;14306;49.942;11.570;2023-06-22T03:09:07;27.47;;;16.87;;
1370;SDS011;14306;49.942;11.570;2023-06-22T03:11:35;17.77;;;14.87;;
1370;SDS011;14306;49.942;11.570;2023-06-22T03:14:03;22.37;;;14.60;;
1370;SDS011;14306;49.942;11.570;2023-06-22T03:16:31;16.63;;;13.73;;
1370;SDS011;14306;49.942;11.570;2023-06-22T03:19:00;18.87;;;13.03;;
1370;SDS011;14306;49.942;11.570;2023-06-22T03:21:29;15.60;;;12.40;;
1370;SDS011;14306;49.942;11.570;2023-06-22T03:23:59;18.30;;;12.97;;
1370;SDS011;14306;49.942;11.570;2023-06-22T03:26:27;15.77;;;13.50;;
1370;SDS011;14306;49.942;11.570;2023-06-22T03:28:56;19.63;;;15.70;;
1370;SDS011;14306;49.942;11.570;2023-06-22T03:31:24;20.90;;;16.30;;
1370;SDS011;14306;49.942;11.570;2023-06-22T03:33:52;21.57;;;17.87;;
1370;SDS011;14306;49.942;11.570;2023-06-22T03:36:20;25.97;;;17.67;;
1370;SDS011;14306;49.942;11.570;2023-06-22T03:38:49;22.10;;;16.67;;
1370;SDS011;14306;49.942;11.570;2023-06-22T03:41:18;27.50;;;20.33;;
1370;SDS011;14306;49.942;11.570;2023-06-22T03:43:47;24.43;;;18.37;;
1370;SDS011;14306;49.942;11.570;2023-06-22T03:46:15;25.83;;;19.03;;
1370;SDS011;14306;49.942;11.570;2023-06-22T03:48:43;24.40;;;18.93;;
1370;SDS011;14306;49.942;11.570;2023-06-22T03:51:11;23.10;;;19.00;;
1370;SDS011;14306;49.942;11.570;2023-06-22T03:53:39;23.53;;;19.70;;
1370;SDS011;14306;49.942;11.570;2023-06-22T03:56:07;30.50;;;19.80;;
1370;SDS011;14306;49.942;11.570;2023-06-22T03:58:37;22.43;;;18.37;;
1370;SDS011;14306;49.942;11.570;2023-06-22T04:01:09;27.03;;;19.87;;
1370;SDS011;14306;49.942;11.570;2023-06-22T04:03:38;24.00;;;19.03;;
1370;SDS011;14306;49.942;11.570;2023-06-22T04:06:07;28.27;;;21.20;;
1370;SDS011;14306;49.942;11.570;2023-06-22T04:08:35;32.60;;;20.80;;
1370;SDS011;14306;49.942;11.570;2023-06-22T04:11:03;27.07;;;20.77;;
1370;SDS011;14306;49.942;11.570;2023-06-22T04:13:32;27.20;;;21.90;;
1370;SDS011;14306;49.942;11.570;2023-06-22T04:16:02;24.03;;;20.90;;
1370;SDS011;14306;49.942;11.570;2023-06-22T04:18:31;25.87;;;21.27;;
1370;SDS011;14306;49.942;11.570;2023-06-22T04:20:59;23.67;;;20.60;;
1370;SDS011;14306;49.942;11.570;2023-06-22T04:23:27;23.40;;;20.50;;
1370;SDS011;14306;49.942;11.570;2023-06-22T04:25:55;28.57;;;20.70;;
1370;SDS011;14306;49.942;11.570;2023-06-22T04:28:24;26.90;;;21.83;;
1370;SDS011;14306;49.942;11.570;2023-06-22T04:30:53;22.17;;;19.17;;
1370;SDS011;14306;49.942;11.570;2023-06-22T04:33:30;21.83;;;17.33;;
1370;SDS011;14306;49.942;11.570;2023-06-22T04:35:59;29.60;;;19.13;;
1370;SDS011;14306;49.942;11.570;2023-06-22T04:38:28;24.03;;;16.83;;
1370;SDS011;14306;49.942;11.570;2023-06-22T04:41:00;20.60;;;16.50;;
1370;SDS011;14306;49.942;11.570;2023-06-22T04:43:29;20.03;;;16.70;;
1370;SDS011;14306;49.942;11.570;2023-06-22T04:45:58;22.77;;;16.60;;
1370;SDS011;14306;49.942;11.570;2023-06-22T04:48:31;18.10;;;15.63;;
1370;SDS011;14306;49.942;11.570;2023-06-22T04:51:00;19.97;;;15.03;;
1370;SDS011;14306;49.942;11.570;2023-06-22T04:53:31;17.63;;;15.27;;
1370;SDS011;14306;49.942;11.570;2023-06-22T04:55:59;19.87;;;14.47;;
1370;SDS011;14306;49.942;11.570;2023-06-22T04:58:31;15.30;;;13.77;;
1370;SDS011;14306;49.942;11.570;2023-06-22T05:00:59;18.73;;;14.30;;
1370;SDS011;14306;49.942;11.570;2023-06-22T05:03:31;15.73;;;13.23;;
1370;SDS011;14306;49.942;11.570;2023-06-22T05:06:00;12.80;;;11.50;;
1370;SDS011;14306;49.942;11.570;2023-06-22T05:08:28;14.17;;;12.03;;
1370;SDS011;14306;49.942;11.570;2023-06-22T05:10:56;20.67;;;13.53;;
1370;SDS011;14306;49.942;11.570;2023-06-22T05:13:31;13.20;;;11.80;;
1370;SDS011;14306;49.942;11.570;2023-06-22T05:16:00;12.93;;;10.30;;
1370;SDS011;14306;49.942;11.570;2023-06-22T05:18:29;11.30;;;10.20;;
1370;SDS011;14306;49.942;11.570;2023-06-22T05:21:01;12.93;;;10.50;;
1370;SDS011;14306;49.942;11.570;2023-06-22T05:23:32;11.13;;;9.87;;
1370;SDS011;14306;49.942;11.570;2023-06-22T05:26:01;13.20;;;10.70;;
1370;SDS011;14306;49.942;11.570;2023-06-22T05:28:32;13.83;;;11.67;;
1370;SDS011;14306;49.942;11.570;2023-06-22T05:31:01;12.60;;;9.63;;
1370;SDS011;14306;49.942;11.570;2023-06-22T05:33:33;10.40;;;9.40;;
1370;SDS011;14306;49.942;11.570;2023-06-22T05:36:03;12.83;;;10.80;;
1370;SDS011;14306;49.942;11.570;2023-06-22T05:38:34;13.00;;;11.00;;
1370;SDS011;14306;49.942;11.570;2023-06-22T05:41:03;17.60;;;10.30;;
1370;SDS011;14306;49.942;11.570;2023-06-22T05:43:32;11.80;;;10.60;;
1370;SDS011;14306;49.942;11.570;2023-06-22T05:46:03;11.17;;;9.97;;
1370;SDS011;14306;49.942;11.570;2023-06-22T05:48:34;9.70;;;8.70;;
1370;SDS011;14306;49.942;11.570;2023-06-22T05:51:05;12.43;;;8.23;;
1370;SDS011;14306;49.942;11.570;2023-06-22T05:53:34;13.00;;;9.73;;
1370;SDS011;14306;49.942;11.570;2023-06-22T05:56:06;8.77;;;7.97;;
1370;SDS011;14306;49.942;11.570;2023-06-22T05:58:35;7.60;;;6.90;;
1370;SDS011;14306;49.942;11.570;2023-06-22T06:01:04;7.87;;;7.17;;
1370;SDS011;14306;49.942;11.570;2023-06-22T06:03:36;9.23;;;7.17;;
1370;SDS011;14306;49.942;11.570;2023-06-22T06:06:09;7.93;;;6.33;;
1370;SDS011;14306;49.942;11.570;2023-06-22T06:08:40;6.93;;;6.40;;
1370;SDS011;14306;49.942;11.570;2023-06-22T06:11:10;7.23;;;6.30;;
1370;SDS011;14306;49.942;11.570;2023-06-22T06:13:38;6.63;;;6.03;;
1370;SDS011;14306;49.942;11.570;2023-06-22T06:16:09;5.67;;;5.00;;
1370;SDS011;14306;49.942;11.570;2023-06-22T06:18:40;9.73;;;6.50;;
1370;SDS011;14306;49.942;11.570;2023-06-22T06:21:08;6.00;;;5.50;;
1370;SDS011;14306;49.942;11.570;2023-06-22T06:23:38;6.67;;;6.07;;
1370;SDS011;14306;49.942;11.570;2023-06-22T06:26:06;6.87;;;5.93;;
1370;SDS011;14306;49.942;11.570;2023-06-22T06:28:35;6.60;;;6.00;;
1370;SDS011;14306;49.942;11.570;2023-06-22T06:31:05;8.53;;;6.10;;
1370;SDS011;14306;49.942;11.570;2023-06-22T06:33:35;6.80;;;6.23;;
1370;SDS011;14306;49.942;11.570;2023-06-22T06:36:07;6.33;;;5.73;;
1370;SDS011;14306;49.942;11.570;2023-06-22T06:38:36;14.40;;;7.30;;
1370;SDS011;14306;49.942;11.570;2023-06-22T06:41:05;6.17;;;5.67;;
1370;SDS011;14306;49.942;11.570;2023-06-22T06:43:34;7.27;;;6.57;;
1370;SDS011;14306;49.942;11.570;2023-06-22T06:46:03;7.90;;;7.20;;
1370;SDS011;14306;49.942;11.570;2023-06-22T06:48:32;7.27;;;6.40;;
1370;SDS011;14306;49.942;11.570;2023-06-22T06:51:01;11.87;;;6.23;;
1370;SDS011;14306;49.942;11.570;2023-06-22T06:53:31;6.67;;;6.07;;
1370;SDS011;14306;49.942;11.570;2023-06-22T06:56:00;9.17;;;6.30;;
1370;SDS011;14306;49.942;11.570;2023-06-22T06:58:31;7.97;;;5.67;;
1370;SDS011;14306;49.942;11.570;2023-06-22T07:01:01;8.57;;;5.40;;
1370;SDS011;14306;49.942;11.570;2023-06-22T07:03:32;6.23;;;5.63;;
1370;SDS011;14306;49.942;11.570;2023-06-22T07:06:04;7.37;;;6.00;;
1370;SDS011;14306;49.942;11.570;2023-06-22T07:08:35;13.40;;;5.93;;
1370;SDS011;14306;49.942;11.570;2023-06-22T07:11:06;7.60;;;6.20;;
1370;SDS011;14306;49.942;11.570;2023-06-22T07:13:36;5.57;;;5.07;;
1370;SDS011;14306;49.942;11.570;2023-06-22T07:16:05;5.20;;;4.70;;
1370;SDS011;14306;49.942;11.570;2023-06-22T07:18:36;4.60;;;4.20;;
1370;SDS011;14306;49.942;11.570;2023-06-22T07:21:08;6.10;;;5.33;;
1370;SDS011;14306;49.942;11.570;2023-06-22T07:23:38;9.27;;;5.83;;
1370;SDS011;14306;49.942;11.570;2023-06-22T07:26:07;8.10;;;5.90;;
1370;SDS011;14306;49.942;11.570;2023-06-22T07:28:39;5.90;;;5.30;;
1370;SDS011;14306;49.942;11.570;2023-06-22T07:31:09;6.47;;;5.87;;
1370;SDS011;14306;49.942;11.570;2023-06-22T07:33:38;7.00;;;5.50;;
1370;SDS011;14306;49.942;11.570;2023-06-22T07:36:08;7.30;;;5.77;;
1370;SDS011;14306;49.942;11.570;2023-06-22T07:38:38;7.53;;;6.60;;
1370;SDS011;14306;49.942;11.570;2023-06-22T07:41:06;7.03;;;6.30;;
1370;SDS011;14306;49.942;11.570;2023-06-22T07:43:35;12.87;;;6.70;;
1370;SDS011;14306;49.942;11.570;2023-06-22T07:46:03;7.10;;;6.17;;
1370;SDS011;14306;49.942;11.570;2023-06-22T07:48:32;7.17;;;6.40;;
1370;SDS011;14306;49.942;11.570;2023-06-22T07:51:05;6.80;;;6.20;;
1370;SDS011;14306;49.942;11.570;2023-06-22T07:53:34;8.63;;;7.50;;
1370;SDS011;14306;49.942;11.570;2023-06-22T07:56:05;7.80;;;6.50;;
1370;SDS011;14306;49.942;11.570;2023-06-22T07:58:36;6.93;;;6.33;;
1370;SDS011;14306;49.942;11.570;2023-06-22T08:01:06;7.53;;;6.50;;
1370;SDS011;14306;49.942;11.570;2023-06-22T08:03:37;6.37;;;5.77;;
1370;SDS011;14306;49.942;11.570;2023-06-22T08:06:07;6.83;;;5.80;;
1370;SDS011;14306;49.942;11.570;2023-06-22T08:08:38;7.63;;;6.60;;
1370;SDS011;14306;49.942;11.570;2023-06-22T08:11:13;7.23;;;6.63;;
1370;SDS011;14306;49.942;11.570;2023-06-22T08:13:43;6.77;;;6.03;;
1370;SDS011;14306;49.942;11.570;2023-06-22T08:16:12;7.43;;;6.00;;
1370;SDS011;14306;49.942;11.570;2023-06-22T08:18:41;6.27;;;5.77;;
1370;SDS011;14306;49.942;11.570;2023-06-22T08:21:11;11.43;;;6.70;;
1370;SDS011;14306;49.942;11.570;2023-06-22T08:23:39;9.50;;;6.30;;
1370;SDS011;14306;49.942;11.570;2023-06-22T08:26:08;6.87;;;6.13;;
1370;SDS011;14306;49.942;11.570;2023-06-22T08:28:39;7.97;;;6.00;;
1370;SDS011;14306;49.942;11.570;2023-06-22T08:31:08;5.90;;;5.30;;
1370;SDS011;14306;49.942;11.570;2023-06-22T08:33:41;7.87;;;6.17;;
1370;SDS011;14306;49.942;11.570;2023-06-22T08:36:15;6.40;;;5.80;;
1370;SDS011;14306;49.942;11.570;2023-06-22T08:38:46;6.00;;;5.50;;
1370;SDS011;14306;49.942;11.570;2023-06-22T08:41:17;7.50;;;6.53;;
1370;SDS011;14306;49.942;11.570;2023-06-22T08:43:48;5.60;;;5.10;;
1370;SDS011;14306;49.942;11.570;2023-06-22T08:46:17;6.20;;;5.60;;
1370;SDS011;14306;49.942;11.570;2023-06-22T08:48:51;6.10;;;5.50;;
1370;SDS011;14306;49.942;11.570;2023-06-22T08:51:20;7.20;;;6.03;;
1370;SDS011;14306;49.942;11.570;2023-06-22T08:53:50;5.67;;;5.17;;
1370;SDS011;14306;49.942;11.570;2023-06-22T08:56:20;6.47;;;5.00;;
1370;SDS011;14306;49.942;11.570;2023-06-22T08:58:50;5.47;;;4.97;;
1370;SDS011;14306;49.942;11.570;2023-06-22T09:01:18;6.80;;;6.20;;
1370;SDS011;14306;49.942;11.570;2023-06-22T09:03:47;6.30;;;5.70;;
1370;SDS011;14306;49.942;11.570;2023-06-22T09:06:24;5.90;;;5.30;;
1370;SDS011;14306;49.942;11.570;2023-06-22T09:08:52;5.83;;;4.70;;
1370;SDS011;14306;49.942;11.570;2023-06-22T09:11:21;5.83;;;5.33;;
1370;SDS011;14306;49.942;11.570;2023-06-22T09:13:51;9.53;;;4.57;;
1370;SDS011;14306;49.942;11.570;2023-06-22T09:16:20;7.33;;;5.40;;
1370;SDS011;14306;49.942;11.570;2023-06-22T09:18:50;4.77;;;4.37;;
1370;SDS011;14306;49.942;11.570;2023-06-22T09:21:19;6.00;;;4.80;;
1370;SDS011;14306;49.942;11.570;2023-06-22T09:23:51;4.27;;;3.93;;
1370;SDS011;14306;49.942;11.570;2023-06-22T09:26:20;4.67;;;4.27;;
1370;SDS011;14306;49.942;11.570;2023-06-22T09:28:51;4.70;;;4.40;;
1370;SDS011;14306;49.942;11.570;2023-06-22T09:31:19;5.00;;;3.93;;
1370;SDS011;14306;49.942;11.570;2023-06-22T09:33:52;5.83;;;4.73;;
1370;SDS011;14306;49.942;11.570;2023-06-22T09:36:22;6.23;;;4.67;;
1370;SDS011;14306;49.942;11.570;2023-06-22T09:38:50;5.80;;;5.27;;
1370;SDS011;14306;49.942;11.570;2023-06-22T09:41:25;4.60;;;4.20;;
1370;SDS011;14306;49.942;11.570;2023-06-22T09:43:55;5.47;;;4.90;;
1370;SDS011;14306;49.942;11.570;2023-06-22T09:46:25;5.20;;;4.77;;
1370;SDS011;14306;49.942;11.570;2023-06-22T09:48:55;5.30;;;4.80;;
1370;SDS011;14306;49.942;11.570;2023-06-22T09:51:23;5.30;;;4.90;;
1370;SDS011;14306;49.942;11.570;2023-06-22T09:53:52;6.27;;;5.77;;
1370;SDS011;14306;49.942;11.570;2023-06-22T09:56:21;6.10;;;5.03;;
1370;SDS011;14306;49.942;11.570;2023-06-22T09:58:49;5.33;;;4.83;;
1370;SDS011;14306;49.942;11.570;2023-06-22T10:01:23;6.07;;;5.27;;
1370;SDS011;14306;49.942;11.570;2023-06-22T10:03:52;4.37;;;3.93;;
1370;SDS011;14306;49.942;11.570;2023-06-22T10:06:23;5.43;;;3.80;;
1370;SDS011;14306;49.942;11.570;2023-06-22T10:08:52;5.20;;;4.73;;
1370;SDS011;14306;49.942;11.570;2023-06-22T10:11:20;5.07;;;4.67;;
1370;SDS011;14306;49.942;11.570;2023-06-22T10:13:54;7.63;;;4.90;;
1370;SDS011;14306;49.942;11.570;2023-06-22T10:16:29;6.17;;;5.30;;
1370;SDS011;14306;49.942;11.570;2023-06-22T10:18:59;6.00;;;5.50;;
1370;SDS011;14306;49.942;11.570;2023-06-22T10:21:27;6.50;;;5.50;;
1370;SDS011;14306;49.942;11.570;2023-06-22T10:23:56;7.00;;;5.50;;
1370;SDS011;14306;49.942;11.570;2023-06-22T10:26:26;6.07;;;5.43;;
1370;SDS011;14306;49.942;11.570;2023-06-22T10:28:55;6.90;;;6.20;;
1370;SDS011;14306;49.942;11.570;2023-06-22T10:31:43;7.37;;;4.70;;
1370;SDS011;14306;49.942;11.570;2023-06-22T10:34:13;5.20;;;4.70;;
1370;SDS011;14306;49.942;11.570;2023-06-22T10:36:42;6.07;;;5.47;;
1370;SDS011;14306;49.942;11.570;2023-06-22T10:39:13;5.23;;;4.73;;
1370;SDS011;14306;49.942;11.570;2023-06-22T10:41:41;5.60;;;5.10;;
1370;SDS011;14306;49.942;11.570;2023-06-22T10:44:10;6.17;;;5.57;;
1370;SDS011;14306;49.942;11.570;2023-06-22T10:46:40;5.60;;;5.20;;
1370;SDS011;14306;49.942;11.570;2023-06-22T10:49:10;5.20;;;4.70;;
1370;SDS011;14306;49.942;11.570;2023-06-22T10:51:39;7.93;;;4.90;;
1370;SDS011;14306;49.942;11.570;2023-06-22T10:54:08;7.90;;;5.50;;
1370;SDS011;14306;49.942;11.570;2023-06-22T10:56:37;10.97;;;5.90;;
1370;SDS011;14306;49.942;11.570;2023-06-22T10:59:07;5.37;;;4.87;;
1370;SDS011;14306;49.942;11.570;2023-06-22T11:01:36;6.67;;;5.53;;
1370;SDS011;14306;49.942;11.570;2023-06-22T11:04:06;5.37;;;4.87;;
1370;SDS011;14306;49.942;11.570;2023-06-22T11:06:37;7.67;;;5.67;;
1370;SDS011;14306;49.942;11.570;2023-06-22T11:09:08;7.97;;;5.43;;
1370;SDS011;14306;49.942;11.570;2023-06-22T11:11:51;5.77;;;4.33;;
1370;SDS011;14306;49.942;11.570;2023-06-22T11:14:21;7.30;;;5.07;;
1370;SDS011;14306;49.942;11.570;2023-06-22T11:16:50;6.83;;;4.60;;
1370;SDS011;14306;49.942;11.570;2023-06-22T11:19:19;7.20;;;5.47;;
1370;SDS011;14306;49.942;11.570;2023-06-22T11:21:49;5.77;;;5.17;;
1370;SDS011;14306;49.942;11.570;2023-06-22T11:24:17;5.43;;;5.00;;
1370;SDS011;14306;49.942;11.570;2023-06-22T11:26:46;9.80;;;6.20;;
1370;SDS011;14306;49.942;11.570;2023-06-22T11:29:14;8.43;;;4.60;;
1370;SDS011;14306;49.942;11.570;2023-06-22T11:31:57;7.10;;;4.40;;
1370;SDS011;14306;49.942;11.570;2023-06-22T11:34:26;5.30;;;4.63;;
1370;SDS011;14306;49.942;11.570;2023-06-22T11:36:55;6.07;;;5.47;;
1370;SDS011;14306;49.942;11.570;2023-06-22T11:39:23;5.43;;;4.80;;
1370;SDS011;14306;49.942;11.570;2023-06-22T11:42:08;5.97;;;4.80;;
1370;SDS011;14306;49.942;11.570;2023-06-22T11:44:36;8.70;;;4.33;;
1370;SDS011;14306;49.942;11.570;2023-06-22T11:47:05;5.90;;;4.77;;
1370;SDS011;14306;49.942;11.570;2023-06-22T11:49:34;5.50;;;4.67;;
1370;SDS011;14306;49.942;11.570;2023-06-22T11:52:04;6.50;;;4.70;;
1370;SDS011;14306;49.942;11.570;2023-06-22T11:54:33;6.80;;;5.67;;
1370;SDS011;14306;49.942;11.570;2023-06-22T11:57:01;4.87;;;4.43;;
1370;SDS011;14306;49.942;11.570;2023-06-22T11:59:30;9.83;;;5.00;;
1370;SDS011;14306;49.942;11.570;2023-06-22T12:01:58;5.60;;;5.03;;
1370;SDS011;14306;49.942;11.570;2023-06-22T12:04:27;4.80;;;4.37;;
1370;SDS011;14306;49.942;11.570;2023-06-22T12:06:55;5.27;;;4.77;;
1370;SDS011;14306;49.942;11.570;2023-06-22T12:09:26;5.13;;;4.60;;
1370;SDS011;14306;49.942;11.570;2023-06-22T12:11:54;9.03;;;5.87;;
1370;SDS011;14306;49.942;11.570;2023-06-22T12:14:24;8.90;;;4.93;;
1370;SDS011;14306;49.942;11.570;2023-06-22T12:16:55;5.93;;;4.83;;
1370;SDS011;14306;49.942;11.570;2023-06-22T12:19:23;11.43;;;5.27;;
1370;SDS011;14306;49.942;11.570;2023-06-22T12:21:52;7.73;;;5.13;;
1370;SDS011;14306;49.942;11.570;2023-06-22T12:24:20;7.80;;;4.50;;
1370;SDS011;14306;49.942;11.570;2023-06-22T12:26:50;10.47;;;5.17;;
1370;SDS011;14306;49.942;11.570;2023-06-22T12:29:21;5.70;;;4.97;;
1370;SDS011;14306;49.942;11.570;2023-06-22T12:31:50;12.07;;;5.27;;
1370;SDS011;14306;49.942;11.570;2023-06-22T12:34:19;7.60;;;4.93;;
1370;SDS011;14306;49.942;11.570;2023-06-22T12:36:47;6.73;;;5.90;;
1370;SDS011;14306;49.942;11.570;2023-06-22T12:39:16;5.60;;;5.07;;
1370;SDS011;14306;49.942;11.570;2023-06-22T12:41:44;9.83;;;4.90;;
1370;SDS011;14306;49.942;11.570;2023-06-22T12:44:14;9.63;;;5.37;;
1370;SDS011;14306;49.942;11.570;2023-06-22T12:46:42;9.00;;;5.27;;
1370;SDS011;14306;49.942;11.570;2023-06-22T12:49:10;5.83;;;5.33;;
1370;SDS011;14306;49.942;11.570;2023-06-22T12:51:39;6.93;;;5.00;;
1370;SDS011;14306;49.942;11.570;2023-06-22T12:54:09;9.43;;;5.33;;
1370;SDS011;14306;49.942;11.570;2023-06-22T12:56:38;6.90;;;5.37;;
1370;SDS011;14306;49.942;11.570;2023-06-22T12:59:07;11.10;;;5.80;;
1370;SDS011;14306;49.942;11.570;2023-06-22T13:01:37;8.47;;;5.27;;
1370;SDS011;14306;49.942;11.570;2023-06-22T13:04:05;12.53;;;5.20;;
1370;SDS011;14306;49.942;11.570;2023-06-22T13:06:33;7.43;;;5.40;;
1370;SDS011;14306;49.942;11.570;2023-06-22T13:09:02;6.43;;;4.93;;
1370;SDS011;14306;49.942;11.570;2023-06-22T13:11:34;11.77;;;4.80;;
1370;SDS011;14306;49.942;11.570;2023-06-22T13:14:03;5.70;;;4.70;;
1370;SDS011;14306;49.942;11.570;2023-06-22T13:16:32;8.70;;;4.80;;
1370;SDS011;14306;49.942;11.570;2023-06-22T13:19:02;10.00;;;5.10;;
1370;SDS011;14306;49.942;11.570;2023-06-22T13:21:31;11.67;;;5.67;;
1370;SDS011;14306;49.942;11.570;2023-06-22T13:24:00;11.93;;;4.80;;
1370;SDS011;14306;49.942;11.570;2023-06-22T13:26:28;7.87;;;4.90;;
1370;SDS011;14306;49.942;11.570;2023-06-22T13:28:57;6.27;;;4.70;;
1370;SDS011;14306;49.942;11.570;2023-06-22T13:31:25;6.80;;;5.63;;
1370;SDS011;14306;49.942;11.570;2023-06-22T13:33:57;6.97;;;4.73;;
1370;SDS011;14306;49.942;11.570;2023-06-22T13:36:27;10.27;;;5.60;;
1370;SDS011;14306;49.942;11.570;2023-06-22T13:39:00;8.07;;;5.33;;
1370;SDS011;14306;49.942;11.570;2023-06-22T13:41:35;7.93;;;4.70;;
1370;SDS011;14306;49.942;11.570;2023-06-22T13:44:03;8.03;;;5.30;;
1370;SDS011;14306;49.942;11.570;2023-06-22T13:46:32;5.63;;;5.03;;
1370;SDS011;14306;49.942;11.570;2023-06-22T13:49:01;12.43;;;6.30;;
1370;SDS011;14306;49.942;11.570;2023-06-22T13:51:31;12.70;;;5.90;;
1370;SDS011;14306;49.942;11.570;2023-06-22T13:54:00;8.03;;;6.50;;
1370;SDS011;14306;49.942;11.570;2023-06-22T13:56:32;11.37;;;5.13;;
1370;SDS011;14306;49.942;11.570;2023-06-22T13:59:00;9.13;;;4.70;;
1370;SDS011;14306;49.942;11.570;2023-06-22T14:01:30;5.97;;;4.90;;
1370;SDS011;14306;49.942;11.570;2023-06-22T14:03:59;12.90;;;5.30;;
1370;SDS011;14306;49.942;11.570;2023-06-22T14:06:31;10.10;;;5.43;;
1370;SDS011;14306;49.942;11.570;2023-06-22T14:09:00;7.60;;;4.73;;
1370;SDS011;14306;49.942;11.570;2023-06-22T14:11:29;8.10;;;4.50;;
1370;SDS011;14306;49.942;11.570;2023-06-22T14:13:57;8.03;;;5.07;;
1370;SDS011;14306;49.942;11.570;2023-06-22T14:16:26;7.97;;;5.80;;
1370;SDS011;14306;49.942;11.570;2023-06-22T14:18:54;11.67;;;4.97;;
1370;SDS011;14306;49.942;11.570;2023-06-22T14:21:23;9.33;;;5.40;;
1370;SDS011;14306;49.942;11.570;2023-06-22T14:23:53;8.83;;;5.23;;
1370;SDS011;14306;49.942;11.570;2023-06-22T14:26:22;11.23;;;5.83;;
1370;SDS011;14306;49.942;11.570;2023-06-22T14:28:50;7.33;;;5.80;;
1370;SDS011;14306;49.942;11.570;2023-06-22T14:31:18;7.30;;;5.43;;
1370;SDS011;14306;49.942;11.570;2023-06-22T14:33:47;9.50;;;5.07;;
1370;SDS011;14306;49.942;11.570;2023-06-22T14:36:16;6.97;;;5.30;;
1370;SDS011;14306;49.942;11.570;2023-06-22T14:38:45;13.23;;;5.00;;
1370;SDS011;14306;49.942;11.570;2023-06-22T14:41:15;8.13;;;5.57;;
1370;SDS011;14306;49.942;11.570;2023-06-22T14:43:44;9.37;;;5.20;;
1370;SDS011;14306;49.942;11.570;2023-06-22T14:46:14;8.23;;;5.27;;
1370;SDS011;14306;49.942;11.570;2023-06-22T14:48:42;12.07;;;5.73;;
1370;SDS011;14306;49.942;11.570;2023-06-22T14:51:11;7.47;;;5.47;;